Hlavní strana
METAR-TAF:

METAR-TAF

Letiště :

Sandane, Norsko

zeměpisná šířka: 61-50N, zeměpisná délka: 006-07E, výška: 6 m

Aktuální stav počasí

Zpráva byla vytvořena před 11 hodinami a 58 minutami, v 14:50 UTC
Západoseverozápadní vítr 23 kt s nárazy do 42 kt
Teplota 1°C
Vlhkost vzduchu 86%
Tlak 1011 hPa
Viditelnost 10 km a více
Skoro jasno ve výšce 2800 ft
Oblačno až skoro zataženo ve výšce 3700 ft
slabé sněhové přeháňky, déšť

METAR: ENSD 231450Z 29023G42KT 9999 -SHSNRA FEW028 BKN037 01/M01 Q1011 RMK WIND 1138FT VRB26G40KT

Čas: 03:48 (02:48 UTC)


TAF: chybějící

Stav a předpovědi počasí z více než 4 000 letišť (zprávy METAR a TAF).

Červené a žluté tečky na mapě představují dostupné meteorologické stanice.

Když kurzor umístíte na tečku, zobrazí se název stanice.

Pak kliknutím zobrazíte stav a předpověď počasí.

Chcete-li změnit mapu, kliknutím na zelené tlačítko se znaménkem +mapu přiblížíte, kliknutím na zelené tlačítko se znaménkem – mapu oddálíte a kliknutím na zelené šipky přejdete na sousední mapy.


METAR-TAF: